sensor_id;sensor_type;location;lat;lon;timestamp;pressure;altitude;pressure_sealevel;temperature;humidity
804;BME280;25687;49.976;8.240;2022-10-31T00:00:24;100594.50;;;9.51;100.00
804;BME280;25687;49.976;8.240;2022-10-31T00:02:49;100595.84;;;9.60;100.00
804;BME280;25687;49.976;8.240;2022-10-31T00:05:15;100588.47;;;9.52;100.00
804;BME280;25687;49.976;8.240;2022-10-31T00:07:40;100593.44;;;9.57;100.00
804;BME280;25687;49.976;8.240;2022-10-31T00:10:06;100601.06;;;9.58;100.00
804;BME280;25687;49.976;8.240;2022-10-31T00:12:32;100596.59;;;9.43;100.00
804;BME280;25687;49.976;8.240;2022-10-31T00:14:57;100594.41;;;9.54;100.00
804;BME280;25687;49.976;8.240;2022-10-31T00:17:22;100599.47;;;9.56;100.00
804;BME280;25687;49.976;8.240;2022-10-31T00:19:48;100599.66;;;9.51;100.00
804;BME280;25687;49.976;8.240;2022-10-31T00:22:13;100601.66;;;9.44;100.00
804;BME280;25687;49.976;8.240;2022-10-31T00:24:38;100599.91;;;9.45;100.00
804;BME280;25687;49.976;8.240;2022-10-31T00:27:03;100598.19;;;9.45;100.00
804;BME280;25687;49.976;8.240;2022-10-31T00:29:29;100599.47;;;9.56;100.00
804;BME280;25687;49.976;8.240;2022-10-31T00:31:54;100602.09;;;9.54;100.00
804;BME280;25687;49.976;8.240;2022-10-31T00:34:19;100616.84;;;9.69;100.00
804;BME280;25687;49.976;8.240;2022-10-31T00:36:44;100615.44;;;9.62;100.00
804;BME280;25687;49.976;8.240;2022-10-31T00:39:10;100615.06;;;9.72;100.00
804;BME280;25687;49.976;8.240;2022-10-31T00:41:35;100609.78;;;9.75;100.00
804;BME280;25687;49.976;8.240;2022-10-31T00:44:00;100613.13;;;9.77;100.00
804;BME280;25687;49.976;8.240;2022-10-31T00:46:26;100615.31;;;9.65;100.00
804;BME280;25687;49.976;8.240;2022-10-31T00:48:51;100613.28;;;9.74;100.00
804;BME280;25687;49.976;8.240;2022-10-31T00:51:16;100606.31;;;9.76;100.00
804;BME280;25687;49.976;8.240;2022-10-31T00:53:42;100609.59;;;9.79;100.00
804;BME280;25687;49.976;8.240;2022-10-31T00:56:07;100603.88;;;9.73;100.00
804;BME280;25687;49.976;8.240;2022-10-31T00:58:32;100609.91;;;9.51;100.00
804;BME280;25687;49.976;8.240;2022-10-31T01:00:57;100600.53;;;9.71;100.00
804;BME280;25687;49.976;8.240;2022-10-31T01:03:28;100604.69;;;9.54;100.00
804;BME280;25687;49.976;8.240;2022-10-31T01:08:25;100598.31;;;9.63;100.00
804;BME280;25687;49.976;8.240;2022-10-31T01:11:07;100598.31;;;9.63;100.00
804;BME280;25687;49.976;8.240;2022-10-31T01:13:33;100592.84;;;9.71;100.00
804;BME280;25687;49.976;8.240;2022-10-31T01:15:59;100595.28;;;9.74;100.00
804;BME280;25687;49.976;8.240;2022-10-31T01:18:26;100600.09;;;9.81;100.00
804;BME280;25687;49.976;8.240;2022-10-31T01:21:18;100589.56;;;9.67;100.00
804;BME280;25687;49.976;8.240;2022-10-31T01:23:44;100591.31;;;9.66;100.00
804;BME280;25687;49.976;8.240;2022-10-31T01:26:14;100596.31;;;9.69;100.00
804;BME280;25687;49.976;8.240;2022-10-31T01:28:48;100588.47;;;9.73;100.00
804;BME280;25687;49.976;8.240;2022-10-31T01:31:14;100598.41;;;9.80;100.00
804;BME280;25687;49.976;8.240;2022-10-31T01:33:41;100594.88;;;9.62;100.00
804;BME280;25687;49.976;8.240;2022-10-31T01:36:18;100592.41;;;9.61;100.00
804;BME280;25687;49.976;8.240;2022-10-31T01:38:45;100587.84;;;9.67;100.00
804;BME280;25687;49.976;8.240;2022-10-31T01:41:13;100589.00;;;9.60;100.00
804;BME280;25687;49.976;8.240;2022-10-31T01:43:43;100594.84;;;9.64;100.00
804;BME280;25687;49.976;8.240;2022-10-31T01:46:09;100593.00;;;9.47;100.00
804;BME280;25687;49.976;8.240;2022-10-31T01:48:34;100577.13;;;9.58;100.00
804;BME280;25687;49.976;8.240;2022-10-31T01:51:00;100589.97;;;9.58;100.00
804;BME280;25687;49.976;8.240;2022-10-31T01:53:25;100594.88;;;9.62;100.00
804;BME280;25687;49.976;8.240;2022-10-31T01:55:51;100583.91;;;9.59;100.00
804;BME280;25687;49.976;8.240;2022-10-31T01:58:21;100584.75;;;9.59;100.00
804;BME280;25687;49.976;8.240;2022-10-31T02:00:50;100601.69;;;9.63;100.00
804;BME280;25687;49.976;8.240;2022-10-31T02:03:18;100598.44;;;9.60;100.00
804;BME280;25687;49.976;8.240;2022-10-31T02:05:44;100607.94;;;9.58;100.00
804;BME280;25687;49.976;8.240;2022-10-31T02:08:16;100609.66;;;9.57;100.00
804;BME280;25687;49.976;8.240;2022-10-31T02:10:43;100604.72;;;9.52;100.00
804;BME280;25687;49.976;8.240;2022-10-31T02:13:09;100595.84;;;9.60;100.00
804;BME280;25687;49.976;8.240;2022-10-31T02:15:37;100595.66;;;9.44;100.00
804;BME280;25687;49.976;8.240;2022-10-31T02:18:04;100590.22;;;9.31;100.00
804;BME280;25687;49.976;8.240;2022-10-31T02:20:36;100584.69;;;9.19;100.00
804;BME280;25687;49.976;8.240;2022-10-31T02:26:45;100593.00;;;9.04;100.00
804;BME280;25687;49.976;8.240;2022-10-31T02:29:48;100584.47;;;9.03;100.00
804;BME280;25687;49.976;8.240;2022-10-31T02:35:08;100596.06;;;9.34;100.00
804;BME280;25687;49.976;8.240;2022-10-31T02:38:09;100600.69;;;9.47;100.00
804;BME280;25687;49.976;8.240;2022-10-31T02:41:03;100588.63;;;9.49;100.00
804;BME280;25687;49.976;8.240;2022-10-31T02:43:38;100588.47;;;9.52;100.00
804;BME280;25687;49.976;8.240;2022-10-31T02:48:57;100585.16;;;9.29;100.00
804;BME280;25687;49.976;8.240;2022-10-31T02:51:25;100578.63;;;9.43;100.00
804;BME280;25687;49.976;8.240;2022-10-31T02:53:51;100585.66;;;9.37;100.00
804;BME280;25687;49.976;8.240;2022-10-31T02:56:18;100583.78;;;9.41;100.00
804;BME280;25687;49.976;8.240;2022-10-31T02:58:51;100576.81;;;9.45;100.00
804;BME280;25687;49.976;8.240;2022-10-31T03:04:10;100575.91;;;9.46;100.00
804;BME280;25687;49.976;8.240;2022-10-31T03:06:57;100570.72;;;9.27;100.00
804;BME280;25687;49.976;8.240;2022-10-31T03:12:15;100575.00;;;9.26;100.00
804;BME280;25687;49.976;8.240;2022-10-31T03:17:36;100569.03;;;9.26;100.00
804;BME280;25687;49.976;8.240;2022-10-31T03:20:04;100570.66;;;9.28;100.00
804;BME280;25687;49.976;8.240;2022-10-31T03:22:32;100574.81;;;9.31;100.00
804;BME280;25687;49.976;8.240;2022-10-31T03:25:01;100573.41;;;9.24;100.00
804;BME280;25687;49.976;8.240;2022-10-31T03:27:30;100568.16;;;9.27;100.00
804;BME280;25687;49.976;8.240;2022-10-31T03:29:59;100565.63;;;9.25;100.00
804;BME280;25687;49.976;8.240;2022-10-31T03:32:29;100559.94;;;9.18;100.00
804;BME280;25687;49.976;8.240;2022-10-31T03:34:59;100554.78;;;9.18;100.00
804;BME280;25687;49.976;8.240;2022-10-31T03:37:29;100555.47;;;9.01;100.00
804;BME280;25687;49.976;8.240;2022-10-31T03:39:58;100552.53;;;9.11;100.00
804;BME280;25687;49.976;8.240;2022-10-31T03:42:26;100558.81;;;9.03;100.00
804;BME280;25687;49.976;8.240;2022-10-31T03:44:57;100552.34;;;8.95;100.00
804;BME280;25687;49.976;8.240;2022-10-31T03:47:25;100552.97;;;9.00;100.00
804;BME280;25687;49.976;8.240;2022-10-31T03:49:50;100547.84;;;9.00;100.00
804;BME280;25687;49.976;8.240;2022-10-31T03:55:01;100549.91;;;8.69;100.00
804;BME280;25687;49.976;8.240;2022-10-31T03:57:51;100554.78;;;8.76;100.00
804;BME280;25687;49.976;8.240;2022-10-31T04:00:19;100552.81;;;8.82;100.00
804;BME280;25687;49.976;8.240;2022-10-31T04:03:15;100557.72;;;8.66;100.00
804;BME280;25687;49.976;8.240;2022-10-31T04:05:45;100557.72;;;8.88;100.00
804;BME280;25687;49.976;8.240;2022-10-31T04:08:14;100560.44;;;8.84;100.00
804;BME280;25687;49.976;8.240;2022-10-31T04:10:41;100559.97;;;8.96;100.00
804;BME280;25687;49.976;8.240;2022-10-31T04:13:15;100572.94;;;8.93;100.00
804;BME280;25687;49.976;8.240;2022-10-31T04:15:43;100575.28;;;8.98;100.00
804;BME280;25687;49.976;8.240;2022-10-31T04:18:09;100566.69;;;8.99;100.00
804;BME280;25687;49.976;8.240;2022-10-31T04:20:37;100577.69;;;9.02;100.00
804;BME280;25687;49.976;8.240;2022-10-31T04:23:04;100573.88;;;8.91;100.00
804;BME280;25687;49.976;8.240;2022-10-31T04:25:29;100577.94;;;8.74;100.00
804;BME280;25687;49.976;8.240;2022-10-31T04:27:55;100582.75;;;8.82;100.00
804;BME280;25687;49.976;8.240;2022-10-31T04:30:20;100586.47;;;8.75;100.00
804;BME280;25687;49.976;8.240;2022-10-31T04:32:45;100592.19;;;8.81;100.00
804;BME280;25687;49.976;8.240;2022-10-31T04:35:11;100595.66;;;8.80;100.00
804;BME280;25687;49.976;8.240;2022-10-31T04:37:36;100591.41;;;8.79;100.00
804;BME280;25687;49.976;8.240;2022-10-31T04:40:02;100587.59;;;8.90;100.00
804;BME280;25687;49.976;8.240;2022-10-31T04:42:31;100579.50;;;8.78;100.00
804;BME280;25687;49.976;8.240;2022-10-31T04:44:56;100577.47;;;8.64;100.00
804;BME280;25687;49.976;8.240;2022-10-31T04:47:22;100581.69;;;8.65;100.00
804;BME280;25687;49.976;8.240;2022-10-31T04:49:47;100576.63;;;8.64;100.00
804;BME280;25687;49.976;8.240;2022-10-31T04:52:13;100569.66;;;8.67;100.00
804;BME280;25687;49.976;8.240;2022-10-31T04:54:38;100577.19;;;8.72;100.00
804;BME280;25687;49.976;8.240;2022-10-31T04:57:03;100577.03;;;8.75;100.00
804;BME280;25687;49.976;8.240;2022-10-31T04:59:28;100575.50;;;8.71;100.00
804;BME280;25687;49.976;8.240;2022-10-31T05:01:54;100573.09;;;8.88;100.00
804;BME280;25687;49.976;8.240;2022-10-31T05:04:19;100570.88;;;9.01;100.00
804;BME280;25687;49.976;8.240;2022-10-31T05:06:44;100568.94;;;9.07;100.00
804;BME280;25687;49.976;8.240;2022-10-31T05:09:10;100569.81;;;9.07;100.00
804;BME280;25687;49.976;8.240;2022-10-31T05:11:35;100558.34;;;8.94;100.00
804;BME280;25687;49.976;8.240;2022-10-31T05:14:00;100558.34;;;8.94;100.00
804;BME280;25687;49.976;8.240;2022-10-31T05:16:25;100555.63;;;8.98;100.00
804;BME280;25687;49.976;8.240;2022-10-31T05:18:51;100555.84;;;8.92;100.00
804;BME280;25687;49.976;8.240;2022-10-31T05:21:16;100564.91;;;9.01;100.00
804;BME280;25687;49.976;8.240;2022-10-31T05:23:41;100566.44;;;9.05;100.00
804;BME280;25687;49.976;8.240;2022-10-31T05:26:07;100570.28;;;8.95;100.00
804;BME280;25687;49.976;8.240;2022-10-31T05:28:32;100564.34;;;9.15;100.00
804;BME280;25687;49.976;8.240;2022-10-31T05:30:57;100561.44;;;9.23;100.00
804;BME280;25687;49.976;8.240;2022-10-31T05:33:22;100558.13;;;9.20;100.00
804;BME280;25687;49.976;8.240;2022-10-31T05:35:48;100550.44;;;9.20;100.00
804;BME280;25687;49.976;8.240;2022-10-31T05:38:13;100549.84;;;9.14;100.00
804;BME280;25687;49.976;8.240;2022-10-31T05:40:38;100549.53;;;9.22;100.00
804;BME280;25687;49.976;8.240;2022-10-31T05:43:04;100561.44;;;9.23;100.00
804;BME280;25687;49.976;8.240;2022-10-31T05:45:29;100555.75;;;9.16;100.00
804;BME280;25687;49.976;8.240;2022-10-31T05:47:59;100549.59;;;9.20;100.00
804;BME280;25687;49.976;8.240;2022-10-31T05:50:26;100563.28;;;9.20;100.00
804;BME280;25687;49.976;8.240;2022-10-31T05:53:03;100565.88;;;8.98;100.00
804;BME280;25687;49.976;8.240;2022-10-31T05:55:29;100566.38;;;9.07;100.00
804;BME280;25687;49.976;8.240;2022-10-31T05:57:55;100566.28;;;9.10;100.00
804;BME280;25687;49.976;8.240;2022-10-31T06:00:22;100565.06;;;9.18;100.00
804;BME280;25687;49.976;8.240;2022-10-31T06:02:48;100550.53;;;9.17;100.00
804;BME280;25687;49.976;8.240;2022-10-31T06:05:14;100544.66;;;9.15;100.00
804;BME280;25687;49.976;8.240;2022-10-31T06:07:40;100548.88;;;9.16;100.00
804;BME280;25687;49.976;8.240;2022-10-31T06:10:07;100545.66;;;9.11;100.00
804;BME280;25687;49.976;8.240;2022-10-31T06:12:33;100544.34;;;9.23;100.00
804;BME280;25687;49.976;8.240;2022-10-31T06:15:04;100540.56;;;9.32;100.00
804;BME280;25687;49.976;8.240;2022-10-31T06:17:30;100541.03;;;9.40;100.00
804;BME280;25687;49.976;8.240;2022-10-31T06:19:55;100550.16;;;9.47;100.00
804;BME280;25687;49.976;8.240;2022-10-31T06:22:20;100553.44;;;9.51;100.00
804;BME280;25687;49.976;8.240;2022-10-31T06:24:46;100559.19;;;9.56;100.00
804;BME280;25687;49.976;8.240;2022-10-31T06:27:11;100556.50;;;9.59;100.00
804;BME280;25687;49.976;8.240;2022-10-31T06:29:36;100556.16;;;9.67;100.00
804;BME280;25687;49.976;8.240;2022-10-31T06:32:02;100552.28;;;9.77;100.00
804;BME280;25687;49.976;8.240;2022-10-31T06:34:27;100547.50;;;9.69;100.00
804;BME280;25687;49.976;8.240;2022-10-31T06:36:52;100541.97;;;9.79;100.00
804;BME280;25687;49.976;8.240;2022-10-31T06:39:17;100540.16;;;9.81;100.00
804;BME280;25687;49.976;8.240;2022-10-31T06:41:43;100551.91;;;9.87;100.00
804;BME280;25687;49.976;8.240;2022-10-31T06:44:08;100548.91;;;9.77;100.00
804;BME280;25687;49.976;8.240;2022-10-31T06:46:33;100550.38;;;9.82;100.00
804;BME280;25687;49.976;8.240;2022-10-31T06:48:59;100549.41;;;10.04;100.00
804;BME280;25687;49.976;8.240;2022-10-31T06:51:24;100550.72;;;9.94;100.00
804;BME280;25687;49.976;8.240;2022-10-31T06:53:50;100545.84;;;10.07;100.00
804;BME280;25687;49.976;8.240;2022-10-31T06:56:15;100550.09;;;10.08;100.00
804;BME280;25687;49.976;8.240;2022-10-31T06:58:40;100551.84;;;10.26;100.00
804;BME280;25687;49.976;8.240;2022-10-31T07:01:06;100549.63;;;10.38;100.00
804;BME280;25687;49.976;8.240;2022-10-31T07:03:31;100544.81;;;10.49;100.00
804;BME280;25687;49.976;8.240;2022-10-31T07:05:57;100557.13;;;10.79;100.00
804;BME280;25687;49.976;8.240;2022-10-31T07:08:23;100549.34;;;10.98;100.00
804;BME280;25687;49.976;8.240;2022-10-31T07:10:53;100553.25;;;10.88;100.00
804;BME280;25687;49.976;8.240;2022-10-31T07:13:18;100551.63;;;11.04;100.00
804;BME280;25687;49.976;8.240;2022-10-31T07:15:46;100548.38;;;11.01;100.00
804;BME280;25687;49.976;8.240;2022-10-31T07:18:12;100545.56;;;11.23;100.00
804;BME280;25687;49.976;8.240;2022-10-31T07:20:37;100551.53;;;11.23;100.00
804;BME280;25687;49.976;8.240;2022-10-31T07:23:03;100549.03;;;11.22;100.00
804;BME280;25687;49.976;8.240;2022-10-31T07:25:28;100550.84;;;11.55;100.00
804;BME280;25687;49.976;8.240;2022-10-31T07:27:55;100551.41;;;11.60;100.00
804;BME280;25687;49.976;8.240;2022-10-31T07:30:20;100547.34;;;11.72;100.00
804;BME280;25687;49.976;8.240;2022-10-31T07:32:47;100554.13;;;11.90;100.00
804;BME280;25687;49.976;8.240;2022-10-31T07:35:18;100550.81;;;11.88;100.00
804;BME280;25687;49.976;8.240;2022-10-31T07:37:44;100556.75;;;12.22;100.00
804;BME280;25687;49.976;8.240;2022-10-31T07:40:10;100546.44;;;12.38;100.00
804;BME280;25687;49.976;8.240;2022-10-31T07:45:03;100554.31;;;12.67;100.00
804;BME280;25687;49.976;8.240;2022-10-31T07:47:28;100548.34;;;12.51;100.00
804;BME280;25687;49.976;8.240;2022-10-31T07:49:54;100559.69;;;12.79;100.00
804;BME280;25687;49.976;8.240;2022-10-31T07:52:19;100545.94;;;12.94;100.00
804;BME280;25687;49.976;8.240;2022-10-31T07:54:44;100553.63;;;13.10;100.00
804;BME280;25687;49.976;8.240;2022-10-31T07:57:10;100558.19;;;13.35;100.00
804;BME280;25687;49.976;8.240;2022-10-31T07:59:35;100549.19;;;13.43;100.00
804;BME280;25687;49.976;8.240;2022-10-31T08:02:00;100549.19;;;13.57;100.00
804;BME280;25687;49.976;8.240;2022-10-31T08:04:25;100549.06;;;13.87;100.00
804;BME280;25687;49.976;8.240;2022-10-31T08:06:51;100547.78;;;14.09;100.00
804;BME280;25687;49.976;8.240;2022-10-31T08:09:16;100553.53;;;14.27;100.00
804;BME280;25687;49.976;8.240;2022-10-31T08:11:41;100557.66;;;14.44;100.00
804;BME280;25687;49.976;8.240;2022-10-31T08:14:06;100550.41;;;14.49;100.00
804;BME280;25687;49.976;8.240;2022-10-31T08:16:32;100547.16;;;14.60;100.00
804;BME280;25687;49.976;8.240;2022-10-31T08:18:57;100540.06;;;14.22;100.00
804;BME280;25687;49.976;8.240;2022-10-31T08:21:22;100543.69;;;14.47;100.00
804;BME280;25687;49.976;8.240;2022-10-31T08:23:48;100541.44;;;14.82;100.00
804;BME280;25687;49.976;8.240;2022-10-31T08:26:13;100540.75;;;15.06;100.00
804;BME280;25687;49.976;8.240;2022-10-31T08:28:38;100543.69;;;15.14;100.00
804;BME280;25687;49.976;8.240;2022-10-31T08:31:03;100538.69;;;15.11;100.00
804;BME280;25687;49.976;8.240;2022-10-31T08:33:30;100537.47;;;14.49;100.00
804;BME280;25687;49.976;8.240;2022-10-31T08:35:57;100543.34;;;13.97;100.00
804;BME280;25687;49.976;8.240;2022-10-31T08:38:23;100542.66;;;14.22;100.00
804;BME280;25687;49.976;8.240;2022-10-31T08:40:48;100537.28;;;14.25;100.00
804;BME280;25687;49.976;8.240;2022-10-31T08:43:16;100536.16;;;14.29;100.00
804;BME280;25687;49.976;8.240;2022-10-31T08:45:43;100535.97;;;14.32;100.00
804;BME280;25687;49.976;8.240;2022-10-31T08:48:12;100529.06;;;14.18;100.00
804;BME280;25687;49.976;8.240;2022-10-31T08:50:38;100526.22;;;14.63;100.00
804;BME280;25687;49.976;8.240;2022-10-31T08:53:10;100529.47;;;15.07;100.00
804;BME280;25687;49.976;8.240;2022-10-31T08:55:37;100528.72;;;15.44;100.00
804;BME280;25687;49.976;8.240;2022-10-31T08:58:04;100523.53;;;15.44;100.00
804;BME280;25687;49.976;8.240;2022-10-31T09:00:30;100514.81;;;15.84;100.00
804;BME280;25687;49.976;8.240;2022-10-31T09:02:56;100517.88;;;16.02;100.00
804;BME280;25687;49.976;8.240;2022-10-31T09:05:22;100517.25;;;15.98;100.00
804;BME280;25687;49.976;8.240;2022-10-31T09:07:47;100516.66;;;15.81;100.00
804;BME280;25687;49.976;8.240;2022-10-31T09:10:13;100518.00;;;15.87;100.00
804;BME280;25687;49.976;8.240;2022-10-31T09:12:38;100520.34;;;15.53;100.00
804;BME280;25687;49.976;8.240;2022-10-31T09:15:03;100514.84;;;15.32;100.00
804;BME280;25687;49.976;8.240;2022-10-31T09:17:31;100517.84;;;15.39;100.00
804;BME280;25687;49.976;8.240;2022-10-31T09:19:56;100525.59;;;15.64;100.00
804;BME280;25687;49.976;8.240;2022-10-31T09:22:22;100514.69;;;15.72;100.00
804;BME280;25687;49.976;8.240;2022-10-31T09:24:47;100511.66;;;16.04;100.00
804;BME280;25687;49.976;8.240;2022-10-31T09:27:12;100511.91;;;15.88;100.00
804;BME280;25687;49.976;8.240;2022-10-31T09:29:37;100513.88;;;15.85;100.00
804;BME280;25687;49.976;8.240;2022-10-31T09:32:03;100508.66;;;16.22;100.00
804;BME280;25687;49.976;8.240;2022-10-31T09:34:28;100509.31;;;16.37;100.00
804;BME280;25687;49.976;8.240;2022-10-31T09:36:53;100507.56;;;16.37;100.00
804;BME280;25687;49.976;8.240;2022-10-31T09:39:19;100505.88;;;16.96;100.00
804;BME280;25687;49.976;8.240;2022-10-31T09:42:05;100507.50;;;16.86;100.00
804;BME280;25687;49.976;8.240;2022-10-31T09:44:55;100507.25;;;16.89;100.00
804;BME280;25687;49.976;8.240;2022-10-31T09:50:19;100508.97;;;17.01;100.00
804;BME280;25687;49.976;8.240;2022-10-31T09:53:08;100504.19;;;16.24;100.00
804;BME280;25687;49.976;8.240;2022-10-31T09:55:45;100502.94;;;16.65;100.00
804;BME280;25687;49.976;8.240;2022-10-31T09:58:32;100503.88;;;16.64;100.00
804;BME280;25687;49.976;8.240;2022-10-31T10:01:01;100487.09;;;16.21;100.00
804;BME280;25687;49.976;8.240;2022-10-31T10:03:45;100489.34;;;15.26;100.00
804;BME280;25687;49.976;8.240;2022-10-31T10:06:18;100488.00;;;15.07;100.00
804;BME280;25687;49.976;8.240;2022-10-31T10:08:44;100486.84;;;15.24;100.00
804;BME280;25687;49.976;8.240;2022-10-31T10:16:55;100485.22;;;15.23;100.00
804;BME280;25687;49.976;8.240;2022-10-31T10:25:24;100476.78;;;15.45;100.00
804;BME280;25687;49.976;8.240;2022-10-31T10:28:21;100478.41;;;15.85;100.00
804;BME280;25687;49.976;8.240;2022-10-31T10:33:40;100477.03;;;16.17;100.00
804;BME280;25687;49.976;8.240;2022-10-31T10:36:31;100476.41;;;16.37;100.00
804;BME280;25687;49.976;8.240;2022-10-31T10:39:25;100471.16;;;16.26;100.00
804;BME280;25687;49.976;8.240;2022-10-31T10:41:55;100467.66;;;16.03;100.00
804;BME280;25687;49.976;8.240;2022-10-31T10:44:50;100459.63;;;16.06;100.00
804;BME280;25687;49.976;8.240;2022-10-31T10:47:41;100455.94;;;16.21;100.00
804;BME280;25687;49.976;8.240;2022-10-31T10:50:13;100455.25;;;16.30;100.00
804;BME280;25687;49.976;8.240;2022-10-31T10:52:51;100458.88;;;16.52;100.00
804;BME280;25687;49.976;8.240;2022-10-31T10:55:45;100446.31;;;16.82;100.00
804;BME280;25687;49.976;8.240;2022-10-31T10:58:14;100449.63;;;16.84;100.00
804;BME280;25687;49.976;8.240;2022-10-31T11:00:41;100448.00;;;17.05;100.00
804;BME280;25687;49.976;8.240;2022-10-31T11:03:08;100432.72;;;16.78;100.00
804;BME280;25687;49.976;8.240;2022-10-31T11:05:50;100431.94;;;16.53;100.00
804;BME280;25687;49.976;8.240;2022-10-31T11:08:28;100435.63;;;16.15;100.00
804;BME280;25687;49.976;8.240;2022-10-31T11:11:03;100428.03;;;16.12;100.00
804;BME280;25687;49.976;8.240;2022-10-31T11:13:29;100430.06;;;16.20;100.00
804;BME280;25687;49.976;8.240;2022-10-31T11:15:59;100428.84;;;16.37;100.00
804;BME280;25687;49.976;8.240;2022-10-31T11:18:27;100425.97;;;16.75;100.00
804;BME280;25687;49.976;8.240;2022-10-31T11:20:57;100422.16;;;17.04;100.00
804;BME280;25687;49.976;8.240;2022-10-31T11:23:24;100409.03;;;17.17;100.00
804;BME280;25687;49.976;8.240;2022-10-31T11:26:03;100409.00;;;16.83;100.00
804;BME280;25687;49.976;8.240;2022-10-31T11:28:29;100400.94;;;16.74;100.00
804;BME280;25687;49.976;8.240;2022-10-31T11:31:05;100393.25;;;16.61;100.00
804;BME280;25687;49.976;8.240;2022-10-31T11:33:34;100400.00;;;16.64;100.00
804;BME280;25687;49.976;8.240;2022-10-31T11:36:09;100394.19;;;16.60;100.00
804;BME280;25687;49.976;8.240;2022-10-31T11:38:41;100397.41;;;16.64;100.00
804;BME280;25687;49.976;8.240;2022-10-31T11:41:18;100391.47;;;16.62;100.00
804;BME280;25687;49.976;8.240;2022-10-31T11:43:52;100388.63;;;17.01;100.00
804;BME280;25687;49.976;8.240;2022-10-31T11:46:33;100390.16;;;17.03;100.00
804;BME280;25687;49.976;8.240;2022-10-31T11:49:00;100395.88;;;17.41;100.00
804;BME280;25687;49.976;8.240;2022-10-31T11:51:33;100394.91;;;17.53;100.00
804;BME280;25687;49.976;8.240;2022-10-31T11:53:59;100391.53;;;17.30;100.00
804;BME280;25687;49.976;8.240;2022-10-31T11:56:28;100396.28;;;17.80;100.00
804;BME280;25687;49.976;8.240;2022-10-31T11:59:05;100392.63;;;18.15;100.00
804;BME280;25687;49.976;8.240;2022-10-31T12:01:32;100378.66;;;18.37;100.00
804;BME280;25687;49.976;8.240;2022-10-31T12:04:05;100381.28;;;18.68;100.00
804;BME280;25687;49.976;8.240;2022-10-31T12:06:33;100371.16;;;18.75;100.00
804;BME280;25687;49.976;8.240;2022-10-31T12:08:59;100359.31;;;18.61;100.00
804;BME280;25687;49.976;8.240;2022-10-31T12:11:37;100347.63;;;18.55;100.00
804;BME280;25687;49.976;8.240;2022-10-31T12:17:24;100336.75;;;17.54;100.00
804;BME280;25687;49.976;8.240;2022-10-31T12:22:44;100340.31;;;17.53;100.00
804;BME280;25687;49.976;8.240;2022-10-31T12:28:27;100325.09;;;17.81;100.00
804;BME280;25687;49.976;8.240;2022-10-31T12:34:40;100316.38;;;17.92;100.00
804;BME280;25687;49.976;8.240;2022-10-31T12:37:07;100310.97;;;18.16;100.00
804;BME280;25687;49.976;8.240;2022-10-31T12:44:41;100290.66;;;18.10;100.00
804;BME280;25687;49.976;8.240;2022-10-31T12:47:36;100287.66;;;18.15;100.00
804;BME280;25687;49.976;8.240;2022-10-31T12:50:31;100281.69;;;18.03;100.00
804;BME280;25687;49.976;8.240;2022-10-31T12:58:43;100282.94;;;17.87;100.00
804;BME280;25687;49.976;8.240;2022-10-31T13:01:30;100278.28;;;18.02;100.00
804;BME280;25687;49.976;8.240;2022-10-31T13:04:31;100272.03;;;18.15;100.00
804;BME280;25687;49.976;8.240;2022-10-31T13:07:07;100260.97;;;18.22;100.00
804;BME280;25687;49.976;8.240;2022-10-31T13:09:41;100252.34;;;18.22;100.00
804;BME280;25687;49.976;8.240;2022-10-31T13:12:11;100245.31;;;18.13;100.00
804;BME280;25687;49.976;8.240;2022-10-31T13:14:48;100246.78;;;18.05;100.00
804;BME280;25687;49.976;8.240;2022-10-31T13:19:46;100239.47;;;17.99;100.00
804;BME280;25687;49.976;8.240;2022-10-31T13:22:17;100230.41;;;17.94;100.00
804;BME280;25687;49.976;8.240;2022-10-31T13:25:09;100224.88;;;17.66;100.00
804;BME280;25687;49.976;8.240;2022-10-31T13:27:47;100220.22;;;17.69;100.00
804;BME280;25687;49.976;8.240;2022-10-31T13:30:22;100227.31;;;17.88;100.00
804;BME280;25687;49.976;8.240;2022-10-31T13:33:02;100225.25;;;18.03;100.00
804;BME280;25687;49.976;8.240;2022-10-31T13:41:22;100215.50;;;18.27;100.00
804;BME280;25687;49.976;8.240;2022-10-31T13:48:58;100202.38;;;17.86;100.00
804;BME280;25687;49.976;8.240;2022-10-31T13:51:26;100204.59;;;18.12;100.00
804;BME280;25687;49.976;8.240;2022-10-31T13:54:06;100206.59;;;17.98;100.00
804;BME280;25687;49.976;8.240;2022-10-31T13:56:34;100204.19;;;18.06;100.00
804;BME280;25687;49.976;8.240;2022-10-31T14:01:33;100208.72;;;17.93;100.00
804;BME280;25687;49.976;8.240;2022-10-31T14:04:06;100218.63;;;18.20;100.00
804;BME280;25687;49.976;8.240;2022-10-31T14:09:24;100222.19;;;18.19;100.00
804;BME280;25687;49.976;8.240;2022-10-31T14:11:51;100214.38;;;18.19;100.00
804;BME280;25687;49.976;8.240;2022-10-31T14:14:19;100215.97;;;18.11;100.00
804;BME280;25687;49.976;8.240;2022-10-31T14:16:46;100210.31;;;18.36;100.00
804;BME280;25687;49.976;8.240;2022-10-31T14:19:19;100209.59;;;18.65;100.00
804;BME280;25687;49.976;8.240;2022-10-31T14:21:47;100206.88;;;18.67;100.00
804;BME280;25687;49.976;8.240;2022-10-31T14:29:23;100212.16;;;19.16;100.00
804;BME280;25687;49.976;8.240;2022-10-31T14:34:57;100206.69;;;19.19;100.00
804;BME280;25687;49.976;8.240;2022-10-31T14:37:58;100189.91;;;19.51;100.00
804;BME280;25687;49.976;8.240;2022-10-31T14:43:45;100188.38;;;19.58;100.00
804;BME280;25687;49.976;8.240;2022-10-31T14:51:51;100184.94;;;18.69;100.00
804;BME280;25687;49.976;8.240;2022-10-31T14:54:23;100181.44;;;18.39;100.00
804;BME280;25687;49.976;8.240;2022-10-31T14:56:53;100169.84;;;18.22;100.00
804;BME280;25687;49.976;8.240;2022-10-31T14:59:28;100174.69;;;17.75;100.00